Georgia  Logo

Marietta, GA Single Family Real Estate Listings

1460 Total Real Estate Listings * Click on table heading to sort
Date Posted Property Type Style Address Price Living Area Lot Size Price/Sq Ft.
2017-05-28 Single Family Ranch 786 Hillwood Drive Marietta, GA 30068 $539,888 12,197 sq. ft.
2017-05-27 Single Family Contemporary; Traditional 2109 Boyce Circle Marietta, GA 30066 $539,000 5,263 sq. ft. 11,326 sq. ft. $102
2017-05-27 Single Family Traditional 5183 Baldwin Terrace Marietta, GA 30068 $729,900 6,641 sq. ft. 19,341 sq. ft. $110
2017-05-27 Single Family Ranch; Traditional 4901 Hawk Trl Marietta, GA 30066 $225,000 1,404 sq. ft. 15,464 sq. ft. $160
2017-05-27 Single Family Colonial; Traditional 2633 Windage Dr Marietta, GA 30008 $169,900 1,718 sq. ft. 8,712 sq. ft. $99
2017-05-26 Single Family Traditional 281 Greencrest Court Marietta, GA 30068 $235,000 2,332 sq. ft. 10,498 sq. ft. $101
2017-05-26 Single Family Contemporary 2560 Cedar Fork Trail Marietta, GA 30062 $389,900 14,985 sq. ft.
2017-05-26 Single Family Traditional 4823 Old Timber Ridge Road Marietta, GA 30068 $900,000 12,632 sq. ft.
2017-05-26 Single Family Traditional 4027 Nackington Path Marietta, GA 30066 $509,900 5,199 sq. ft. 14,810 sq. ft. $98
2017-05-26 Single Family Craftsman; Ranch 2865 Delinger Dr Marietta, GA 30062 $369,000 2,766 sq. ft. 9,888 sq. ft. $133
2017-05-26 Single Family Traditional 2770 Wooded Hills Walk Marietta, GA 30062 $1,150,880 6,660 sq. ft. 20,038 sq. ft. $173
2017-05-26 Single Family Traditional 3125 Shumard Way Marietta, GA 30064 $1,180,000 40,511 sq. ft.
2017-05-26 Single Family Traditional 1113 Blackwell Farm Dr Marietta, GA 30068 $780,000 4,243 sq. ft. 14,810 sq. ft. $184
2017-05-26 Single Family Traditional 4607 Misty Meadows Dr Marietta, GA 30066 $615,000 4,196 sq. ft. 20,038 sq. ft. $147
2017-05-26 Single Family Traditional 366 Oak Glen Marietta, GA 30068 $639,900 3,777 sq. ft. 20,909 sq. ft. $169
2017-05-26 Single Family Traditional 2312 Woodsfield Ln Marietta, GA 30062 $640,000 4,773 sq. ft. 49,658 sq. ft. $134
2017-05-26 Single Family Traditional 2081 Wyeth Walk Marietta, GA 30062 $525,000 3,458 sq. ft. 30,100 sq. ft. $152
2017-05-26 Single Family Traditional 985 Waverly Ct Marietta, GA 30064 $365,000 33,280 sq. ft.
2017-05-26 Single Family Colonial 3200 Birchfield Trce Marietta, GA 30068 $375,000 3,299 sq. ft. 20,212 sq. ft. $114
2017-05-26 Single Family Ranch; Traditional 3484 Brandon Hall Way Marietta, GA 30062 $325,000 2,806 sq. ft. 27,878 sq. ft. $116
2017-05-26 Single Family Contemporary 2150 Deep Woods Way Marietta, GA 30062 $335,000 3,409 sq. ft. 44,475 sq. ft. $98
2017-05-26 Single Family Traditional 2430 Prince Howard Trl Marietta, GA 30062 $345,500 3,122 sq. ft. 10,411 sq. ft. $111
2017-05-26 Single Family Ranch; Traditional 1508 Old Hunters Trce Marietta, GA 30062 $349,000 2,666 sq. ft. 20,299 sq. ft. $131
2017-05-26 Single Family Traditional 2905 Grove Park Ln Marietta, GA 30067 $279,900 1,912 sq. ft. 12,807 sq. ft. $146
2017-05-26 Single Family Cape Cod 2208 Arbor Forest Trail Marietta, GA 30064 $235,000 1,992 sq. ft. 15,072 sq. ft. $118
2017-05-26 Single Family Ranch 2245 Yarmouth Pl Marietta, GA 30066 $175,000 1,471 sq. ft. 12,197 sq. ft. $119
2017-05-26 Single Family Traditional 56 Olive Ln Marietta, GA 30060 $179,900 2,224 sq. ft. 32,670 sq. ft. $81
2017-05-26 Single Family Traditional 2140 Spindrift Ct Marietta, GA 30062 $510,000 4,283 sq. ft. 20,168 sq. ft. $119
2017-05-25 Single Family Traditional 2813 Pine Meadow Dr Marietta, GA 30066 $219,900 1,840 sq. ft. 20,299 sq. ft. $120
2017-05-25 Single Family Traditional 3300 Hickory Crest Dr Marietta, GA 30064 $245,500 2,945 sq. ft. 51,880 sq. ft. $83
2017-05-25 Single Family Traditional 3017 Moser Way Marietta, GA 30060 $295,000 3,345 sq. ft. $88
2017-05-25 Single Family Traditional 254 Robbie Ln Marietta, GA 30060 $150,000 1,276 sq. ft. 12,981 sq. ft. $118
2017-05-25 Single Family Ranch 4440 Windsor Oaks Cir Marietta, GA 30066 $434,999 3,097 sq. ft. 24,873 sq. ft. $140
2017-05-25 Single Family Traditional 3501 Mooregate Dr Marietta, GA 30062 $499,000 3,703 sq. ft. 23,479 sq. ft. $135
2017-05-25 Single Family Traditional 822 Birds Ml Marietta, GA 30067 $519,900 21,649 sq. ft.
2017-05-25 Single Family Traditional 4393 Cades Pt Marietta, GA 30066 $550,000 4,111 sq. ft. 40,511 sq. ft. $134
2017-05-25 Single Family Traditional 1328 Nantahala Trl Marietta, GA 30062 $399,900 2,316 sq. ft. 10,237 sq. ft. $173
2017-05-25 Single Family Traditional 2101 B T Sheppard Drive Marietta, GA 30062 $345,000 14,462 sq. ft.
2017-05-25 Single Family Traditional 2159 Caneridge Dr Marietta, GA 30064 $230,000 14,810 sq. ft.
2017-05-25 Single Family Ranch 2733 Battle Trl Marietta, GA 30064 $159,900 2,065 sq. ft. 17,860 sq. ft. $77
2017-05-25 Single Family Ranch 1375 Dewberry Trl Marietta, GA 30062 $170,000 18,687 sq. ft.
2017-05-25 Single Family Traditional 4503 Windsor Oaks Dr Marietta, GA 30066 $389,900 17,424 sq. ft.
2017-05-25 Single Family Ranch 2044 Wenlok Trl Marietta, GA 30066 $300,000 2,836 sq. ft. 13,939 sq. ft. $106
2017-05-25 Single Family Traditional 3014 Cockspur Trl Marietta, GA 30008 $190,000 2,282 sq. ft. $83
2017-05-25 Single Family Traditional 2844 Galahad Way Marietta, GA 30064 $198,900 11,456 sq. ft.
2017-05-25 Single Family Traditional 1469 Twin Branches Cir Marietta, GA 30067 $129,900 1,820 sq. ft. $71
2017-05-25 Single Family Traditional 700 River Forest Ct Marietta, GA 30068 $776,500 26,484 sq. ft.
2017-05-25 Single Family Traditional 1366 Murdock Rd Marietta, GA 30062 $340,000 2,071 sq. ft. 20,473 sq. ft. $164
2017-05-25 Single Family A-Frame; Contemporary 670 Applewood Ln Marietta, GA 30064 $265,000 2,618 sq. ft. 15,682 sq. ft. $101
2017-05-25 Single Family Traditional 1802 Caswell Pkwy Marietta, GA 30060 $247,500 1,827 sq. ft. 1,742 sq. ft. $135
2017-05-25 Single Family Mid Rise 822 Sentinel Ridge Marietta, GA 30064 $99,000 1,121 sq. ft. $88
2017-05-25 Single Family European 4001 Regency Lake Trl Marietta, GA 30062 $699,900
2017-05-25 Single Family Traditional 3798 Fox Hills Dr Marietta, GA 30067 $369,900 2,930 sq. ft. 10,106 sq. ft. $126
2017-05-25 Single Family Colonial; Traditional 3720 Wesley Chapel Rd Marietta, GA 30062 $325,000 2,476 sq. ft. 22,956 sq. ft. $131
2017-05-25 Single Family Ranch; Traditional 3060 Wendlock Marietta, GA 30062 $285,000 1,906 sq. ft. $150
2017-05-25 Single Family Craftsman; Traditional 2549 Kolb Manor Cir Marietta, GA 30008 $235,900 2,684 sq. ft. 10,019 sq. ft. $88
2017-05-25 Single Family Ranch 2865 Wendwood Dr Marietta, GA 30062 $239,900
2017-05-25 Single Family Traditional 2941 Foothill Trl Marietta, GA 30066 $270,000
2017-05-25 Single Family Traditional 1293 Wynford Colony Marietta, GA 30064 $224,900 2,390 sq. ft. 15,072 sq. ft. $94
2017-05-24 Single Family Contemporary 4292 Revere Cir Marietta, GA 30062 $525,000
2017-05-24 Single Family Traditional 3372 Velvet Creek Ln Marietta, GA 30008 $205,000 2,808 sq. ft. 9,060 sq. ft. $73
2017-05-24 Single Family Traditional 3149 Shumard Way Marietta, GA 30064 $1,200,000 8,110 sq. ft. 41,382 sq. ft. $148
2017-05-24 Single Family Contemporary 1190 Stoneheath Mews Marietta, GA 30068 $624,000 59,590 sq. ft.
2017-05-24 Single Family Traditional 3238 Sweet Bay Ln Marietta, GA 30062 $379,900 17,293 sq. ft.
2017-05-24 Single Family Ranch 3970 Sandy Plains Rd Marietta, GA 30066 $315,000 1,538 sq. ft. 104,544 sq. ft. $205
2017-05-24 Single Family Traditional 1950 Willeo Creek Pt Marietta, GA 30068 $529,000 3,790 sq. ft. 56,454 sq. ft. $140
2017-05-24 Single Family Traditional 551 Park Ln Marietta, GA 30067 $389,900 2,704 sq. ft. 44,431 sq. ft. $144
2017-05-24 Single Family Traditional 4807 Woodspring Dr Marietta, GA 30066 $245,000 9,191 sq. ft.
2017-05-24 Single Family Traditional 270 Cox Farm Rd Marietta, GA 30064 $639,900 6,017 sq. ft. 23,087 sq. ft. $106
2017-05-24 Single Family A-Frame; Traditional 4308 Sprucebough Dr Marietta, GA 30062 $459,900 4,700 sq. ft. $98
2017-05-24 Single Family Ranch 266 Brookwood Dr Marietta, GA 30064 $250,000 10,498 sq. ft.
2017-05-24 Single Family Traditional 2533 Kolb Manor Cir Marietta, GA 30008 $225,000
2017-05-24 Single Family Ranch 2780 Old Carriage Dr Marietta, GA 30060 $140,000 2,475 sq. ft. 10,716 sq. ft. $57
2017-05-24 Single Family Colonial; Traditional 4816 Hill Creek Ct Marietta, GA 30062 $425,000 3,754 sq. ft. 34,412 sq. ft. $113
2017-05-23 Single Family Ranch 2031 Panstone Ct Marietta, GA 30060 $125,000 828 sq. ft.
2017-05-23 Single Family Craftsman 4030 Burnt Hickory Rd Marietta, GA 30064 $470,000 52,272 sq. ft.
2017-05-23 Single Family Traditional 2059 Wyeth Walk Marietta, GA 30062 $525,000 2,984 sq. ft. 20,038 sq. ft. $176
2017-05-23 Single Family Craftsman 526 Whitlock Ave Marietta, GA 30064 $469,000 2,650 sq. ft. 22,216 sq. ft. $177
2017-05-23 Single Family Bungalow/Cottage 3460 Clare Cottage Trce Marietta, GA 30008 $124,900 1,360 sq. ft. 9,975 sq. ft. $92
2017-05-23 Single Family Contemporary 3561 Ebenezer Rd Marietta, GA 30066 $749,900 2,725 sq. ft. 43,560 sq. ft. $275
2017-05-23 Single Family European; Traditional 2862 Howard Dr Marietta, GA 30062 $689,000 16,553 sq. ft.
2017-05-23 Single Family Ranch 308 Kurtz Rd Marietta, GA 30066 $235,000 13,809 sq. ft.
2017-05-23 Single Family Ranch 2467 Creekview Dr Marietta, GA 30008 $149,900 1,200 sq. ft. 12,153 sq. ft. $125
2017-05-23 Single Family Contemporary 4088 Columns Dr Marietta, GA 30067 $465,000 2,677 sq. ft. $174
2017-05-23 Single Family Traditional 4830 Holmes Farm Ct Marietta, GA 30066 $650,000 4,070 sq. ft. 15,246 sq. ft. $160
2017-05-23 Single Family Traditional 2395 Brownstone Ct Marietta, GA 30062 $415,000 2,436 sq. ft. 10,019 sq. ft. $170
2017-05-23 Single Family Traditional 2872 Suffolk Ct Marietta, GA 30062 $309,900
2017-05-23 Single Family Traditional 2110 Corsica Way Marietta, GA 30008 $219,900 2,241 sq. ft. 12,720 sq. ft. $98
2017-05-23 Single Family Traditional 2776 Stillwater Lake Ct Marietta, GA 30066 $419,900 4,013 sq. ft. 10,019 sq. ft. $105
2017-05-23 Single Family Traditional 1307 Golden Rock Ln Marietta, GA 30067 $385,305 2,518 sq. ft. $153
2017-05-23 Single Family Traditional 1311 Golden Rock Ln Marietta, GA 30067 $392,560 2,518 sq. ft. $156
2017-05-23 Single Family Contemporary 3771 Spring House Ct Marietta, GA 30067 $309,000 1,897 sq. ft. 10,803 sq. ft. $163
2017-05-23 Single Family Traditional 2041 Lance Court Marietta, GA 30062 $253,000 1,989 sq. ft. 34,543 sq. ft. $127
2017-05-23 Single Family Other (See Remarks); Traditional 1105 Blackwell Farm Dr Marietta, GA 30068 $825,000 6,536 sq. ft. 14,810 sq. ft. $126
2017-05-22 Single Family Traditional 1303 Golden Rock Ln Marietta, GA 30067 $380,860 2,518 sq. ft. $151
2017-05-22 Single Family Traditional 1299 Golden Rock Ln Marietta, GA 30067 $387,035 2,518 sq. ft. $154
2017-05-22 Single Family Traditional 1295 Golden Rock Ln Marietta, GA 30067 $380,280 2,518 sq. ft. $151
2017-05-22 Single Family Traditional 1291 Golden Rock Ln Marietta, GA 30067 $383,192 2,518 sq. ft. $152
2017-05-22 Single Family Traditional 1283 Golden Rock Ln Marietta, GA 30067 $390,555 2,518 sq. ft. $155
2017-05-22 Single Family Traditional 2703 Smithstone Way Marietta, GA 30067 $299,900 2,335 sq. ft. 14,593 sq. ft. $128
2017-05-22 Single Family Traditional 3855 Bluffview Dr Marietta, GA 30062 $250,000
2017-05-22 Single Family Traditional 2459 Magnolia Ridge Dr Marietta, GA 30067 $321,400 2,500 sq. ft. $129
2017-05-22 Single Family Traditional 5500 Conway Dr Marietta, GA 30068 $700,000 3,518 sq. ft. 20,735 sq. ft. $199
2017-05-22 Single Family Traditional 3353 Chastain Landings Ct Marietta, GA 30066 $219,840 1,710 sq. ft. 9,583 sq. ft. $129
2017-05-22 Single Family Traditional 3403 Woodshire Xing Marietta, GA 30066 $669,900 4,151 sq. ft. 12,502 sq. ft. $161
2017-05-22 Single Family Bungalow/Cottage 3351 Wellesley Pt Marietta, GA 30064 $450,000 2,507 sq. ft. 8,930 sq. ft. $180
2017-05-22 Single Family Ranch; Traditional 3305 Pebble Hill Dr Marietta, GA 30062 $317,500 31,799 sq. ft.
2017-05-22 Single Family Ranch; Traditional 2155 Pawnee Dr Marietta, GA 30067 $194,000 2,331 sq. ft. 8,276 sq. ft. $83
2017-05-22 Single Family Traditional 3170 Tina Ln Marietta, GA 30066 $204,900 1,596 sq. ft. 10,019 sq. ft. $128
2017-05-22 Single Family Bungalow/Cottage; Ranch 401 Alexander Cir Marietta, GA 30060 $125,000 1,012 sq. ft. 6,490 sq. ft. $124
2017-05-22 Single Family Ranch 3479 Clubland Dr Marietta, GA 30068 $649,000
2017-05-22 Single Family Traditional 2885 Wynfair Marietta, GA 30062 $434,900
2017-05-22 Single Family Traditional 4486 Poplar Ter Marietta, GA 30066 $339,900 3,048 sq. ft. 11,326 sq. ft. $112
2017-05-22 Single Family Traditional 2833 Penncross Dr Marietta, GA 30064 $309,000 3,121 sq. ft. 14,810 sq. ft. $99
2017-05-22 Single Family Traditional 3287 Allegheny Dr Marietta, GA 30066 $309,900 2,380 sq. ft. 14,201 sq. ft. $130
2017-05-22 Single Family Traditional 279 Ivy Manor Dr Marietta, GA 30064 $255,000 2,565 sq. ft. 20,038 sq. ft. $99
2017-05-22 Single Family Traditional 3884 Rock Mill Pkwy Marietta, GA 30062 $180,200 1,529 sq. ft. 18,252 sq. ft. $118
2017-05-20 Single Family Traditional 2386 Battle Forest Dr Marietta, GA 30064 $295,000 15,072 sq. ft.
2017-05-20 Single Family Traditional 2740 Idlewood Dr Marietta, GA 30062 $225,000 11,326 sq. ft.
2017-05-20 Single Family Contemporary 1744 Christie Dr Marietta, GA 30066 $199,900
2017-05-20 Single Family Traditional 3036 Hoyle Farm Vw Marietta, GA 30064 $600,000 5,172 sq. ft. 23,087 sq. ft. $116
2017-05-20 Single Family Traditional 3346 Chastain Ridge Dr Marietta, GA 30066 $410,000 2,983 sq. ft. 10,890 sq. ft. $137
2017-05-20 Single Family Traditional 2603 Weddington Pl Marietta, GA 30068 $750,000 6,653 sq. ft. 21,344 sq. ft. $113
2017-05-20 Single Family Contemporary 2741 Sudbury Trce Marietta, GA 30062 $295,000
2017-05-19 Single Family Ranch 549 Flintwood Dr Marietta, GA 30068 $280,000 1,875 sq. ft. 33,541 sq. ft. $149
2017-05-19 Single Family Traditional 5402 Jackson Pt Marietta, GA 30068 $550,000 3,056 sq. ft. 10,846 sq. ft. $180
2017-05-19 Single Family Traditional 3531 Ebenezer Rd Marietta, GA 30066 $269,900 3,041 sq. ft. 24,829 sq. ft. $89
2017-05-19 Single Family Traditional 110 Scarborough Ct Marietta, GA 30067 $619,000 19,602 sq. ft.
2017-05-19 Single Family European; Traditional 1185 Stoneheath Mews Marietta, GA 30068 $650,000 59,242 sq. ft.
2017-05-19 Single Family Traditional 3125 Swallow Dr Marietta, GA 30066 $410,900 4,082 sq. ft. 15,551 sq. ft. $101
2017-05-19 Single Family Traditional 1868 Wilkenson Xing Marietta, GA 30066 $332,900 2,929 sq. ft. 7,667 sq. ft. $114
2017-05-19 Single Family Ranch 3031 Bay Berry Ct Marietta, GA 30008 $159,900 1,273 sq. ft. 12,589 sq. ft. $126
2017-05-19 Single Family European; French Provincial 2232 Edgemere Pl Marietta, GA 30062 $799,900 5,713 sq. ft. 17,424 sq. ft. $140
2017-05-19 Single Family Contemporary 3472 Winter Wood Way Marietta, GA 30062 $339,000 17,424 sq. ft.
2017-05-19 Single Family Traditional 961 Laurel Field Ln Marietta, GA 30064 $297,500 17,729 sq. ft.
2017-05-19 Single Family Cape Cod 1582 Blackwell Rd Marietta, GA 30066 $252,500 1,590 sq. ft. 10,019 sq. ft. $159
2017-05-19 Single Family Contemporary 1960 O Shea Ln Marietta, GA 30062 $271,000 11,326 sq. ft.
2017-05-19 Single Family Contemporary 4610 Misty Meadows Dr Marietta, GA 30066 $725,000 20,038 sq. ft.
2017-05-19 Single Family Ranch 2096 Corsica Way Marietta, GA 30008 $189,500 2,523 sq. ft. 7,667 sq. ft. $75
2017-05-19 Single Family Traditional 1475 Hilltop Overlook Marietta, GA 30062 $550,000 3,796 sq. ft. 12,632 sq. ft. $145
2017-05-19 Single Family Traditional 251 Martin Ridge Dr Marietta, GA 30064 $219,000 14,418 sq. ft.
2017-05-19 Single Family Cape Cod 1491 Brookcliff Dr Marietta, GA 30062 $400,000 2,871 sq. ft. 10,106 sq. ft. $139
2017-05-19 Single Family Traditional 1651 Massachusetts Marietta, GA 30008 $84,900 871 sq. ft.
2017-05-19 Single Family Traditional 4373 Dunmore Road Marietta, GA 30068 $630,000 4,651 sq. ft. 19,166 sq. ft. $135
2017-05-19 Single Family Traditional 4032 Bradbury Dr Marietta, GA 30062 $675,000
2017-05-19 Single Family Traditional 645 Lighthorse Dr Marietta, GA 30064 $415,000 19,776 sq. ft.
2017-05-19 Single Family Traditional 4556 Ashmore Cir Marietta, GA 30066 $450,000 3,504 sq. ft. 17,337 sq. ft. $128
2017-05-19 Single Family Cape Cod; Traditional 3621 Oxford Trce Marietta, GA 30062 $400,000 2,482 sq. ft. 11,021 sq. ft. $161
2017-05-19 Single Family Contemporary 4151 Keheley Rd Marietta, GA 30066 $325,000 12,850 sq. ft.
2017-05-19 Single Family Traditional 1503 Wood Thrush Way Marietta, GA 30062 $349,500 2,879 sq. ft. 17,860 sq. ft. $121
2017-05-19 Single Family Traditional 1783 Millhouse Run Marietta, GA 30066 $309,900 2,469 sq. ft. 12,240 sq. ft. $126
2017-05-19 Single Family Other (See Remarks); Ranch 1204 Commonwealth Ave Marietta, GA 30064 $315,000 2,472 sq. ft. 20,255 sq. ft. $127
2017-05-19 Single Family Ranch 3080 Brownmoore Dr Marietta, GA 30060 $229,000 1,984 sq. ft. 14,375 sq. ft. $115
2017-05-19 Single Family Traditional 1994 Benthill Marietta, GA 30062 $240,000 25,700 sq. ft.
2017-05-19 Single Family Traditional 595 Whisperwill Marietta, GA 30066 $160,000 10,019 sq. ft.
2017-05-18 Single Family Traditional 3570 Lassiter Rd Marietta, GA 30062 $400,000 13,896 sq. ft.
2017-05-18 Single Family Contemporary 4526 Columns Dr Marietta, GA 30067 $1,382,000 57,064 sq. ft.
2017-05-18 Single Family Ranch; Traditional 87 Kathryn Way Marietta, GA 30062 $210,000
2017-05-18 Single Family Contemporary 2754 Eagle Ridge Rd Marietta, GA 30062 $425,000 3,816 sq. ft. 11,543 sq. ft. $111
2017-05-18 Single Family Traditional 592 Westchester Cir Marietta, GA 30064 $245,000 2,532 sq. ft. 7,579 sq. ft. $97
2017-05-18 Single Family Ranch 4141 Clubland Dr Marietta, GA 30068 $424,900 34,848 sq. ft.
2017-05-18 Single Family European 3624 Blakeford Club Dr Marietta, GA 30062 $650,000 4,548 sq. ft. 29,229 sq. ft. $143
2017-05-18 Single Family Traditional 2710 Georgian Ct Marietta, GA 30068 $275,000 2,596 sq. ft. 14,070 sq. ft. $106
2017-05-18 Single Family Traditional 3043 Brightwood Marietta, GA 30067 $525,000 5,139 sq. ft. 16,117 sq. ft. $102
2017-05-18 Single Family Ranch 711 Forest Ridge Dr Marietta, GA 30067 $210,000 10,934 sq. ft.
2017-05-18 Single Family Traditional 5149 Forest Brook Pkwy Marietta, GA 30068 $577,900 23,871 sq. ft.
2017-05-18 Single Family Traditional 2064 Cove Trl Marietta, GA 30066 $225,000 1,900 sq. ft. 11,631 sq. ft. $118
2017-05-18 Single Family Ranch 2544 Angus Ct Marietta, GA 30008 $165,000 13,112 sq. ft.
2017-05-18 Single Family Traditional 289 Wylstream Pl Marietta, GA 30064 $644,900 5,922 sq. ft. 36,285 sq. ft. $109
2017-05-18 Single Family Traditional 3309 Perrington Pte Marietta, GA 30066 $675,000 14,549 sq. ft.
2017-05-18 Single Family Traditional 4198 Arbor Spring Dr Marietta, GA 30066 $349,900 2,748 sq. ft. 19,297 sq. ft. $127
2017-05-18 Single Family Craftsman; Traditional 4544 Oakside Pt Marietta, GA 30067 $1,180,000 10,019 sq. ft.
2017-05-18 Single Family Traditional 2165 Waldrop Rd Marietta, GA 30066 $585,000 6,496 sq. ft. 13,504 sq. ft. $90
2017-05-18 Single Family Traditional Marietta, GA 30067 $600,000 6,403 sq. ft. 17,163 sq. ft. $94
2017-05-18 Single Family Ranch; Traditional 1987 Village Round Marietta, GA 30064 $618,000 13,504 sq. ft.
2017-05-18 Single Family Traditional 2130 Hilltop Overlook Way Marietta, GA 30062 $625,000 19,602 sq. ft.
2017-05-18 Single Family Ranch 3009 Gant Quarters Dr Marietta, GA 30068 $369,900 2,952 sq. ft. 13,242 sq. ft. $125
2017-05-18 Single Family Traditional 2281 Woodsfield Ln Marietta, GA 30062 $369,900 3,284 sq. ft. 10,019 sq. ft. $113
2017-05-18 Single Family European; Traditional 2214 Major Loring Way Marietta, GA 30064 $327,900 3,294 sq. ft. $100
2017-05-18 Single Family Traditional 3931 Shoemaker Ct Marietta, GA 30062 $329,900 2,236 sq. ft. 18,252 sq. ft. $148
2017-05-18 Single Family Traditional 983 Bridgegate Marietta, GA 30068 $339,900 5,227 sq. ft.
2017-05-18 Single Family Colonial; Traditional 2811 Stillwater Park Dr Marietta, GA 30066 $344,900 2,586 sq. ft. 10,019 sq. ft. $133
2017-05-17 Single Family Traditional 1253 Whitlock Ridge Dr Marietta, GA 30064 $161,000 5,271 sq. ft.
2017-05-17 Single Family Traditional 4490 Slope Cir Marietta, GA 30066 $380,000 3,734 sq. ft. 15,246 sq. ft. $102
2017-05-17 Single Family Traditional 1213 Rosette Way Marietta, GA 30062 $649,900
2017-05-17 Single Family Traditional 1429 Fenwick Marietta, GA 30064 $279,500 3,180 sq. ft. 16,988 sq. ft. $88
2017-05-17 Single Family Contemporary 1455 Bentcreek Dr Marietta, GA 30062 $380,000
2017-05-17 Single Family Ranch 2839 Howard Dr Marietta, GA 30062 $278,000 3,564 sq. ft. 20,778 sq. ft. $78
2017-05-17 Single Family Cape Cod; Traditional 1131 Longwood Dr Marietta, GA 30008 $300,000 3,471 sq. ft. 38,768 sq. ft. $86
2017-05-17 Single Family Cluster; Traditional 2937 Gateland Marietta, GA 30062 $489,900 1,742 sq. ft.
2017-05-17 Single Family Traditional 4509 Chattahoochee Way Marietta, GA 30067 $570,000
2017-05-17 Single Family Colonial; Traditional 1086 Dogwood Forest Dr Marietta, GA 30068 $349,000 1,996 sq. ft. 15,246 sq. ft. $175
2017-05-17 Single Family Traditional 1989 Winding Creek Ln Marietta, GA 30064 $168,000 12,458 sq. ft.
2017-05-17 Single Family Traditional 2826 Cobb Place Manor Ct Marietta, GA 30066 $176,800 1,902 sq. ft. 10,106 sq. ft. $93
2017-05-17 Single Family Traditional 1819 Ebenezer Farm Cir Marietta, GA 30066 $523,000 15,246 sq. ft.
2017-05-17 Single Family European; Traditional 1001 Soaring Dr Marietta, GA 30062 $348,000 2,870 sq. ft. 14,505 sq. ft. $121
2017-05-17 Single Family Traditional 137 Threechop Dr Marietta, GA 30064 $329,000 2,917 sq. ft. 32,409 sq. ft. $113
2017-05-17 Single Family Traditional 1489 Mcadoo Dr Marietta, GA 30064 $182,500 2,326 sq. ft. 17,729 sq. ft. $78
2017-05-17 Single Family Traditional 2530 Boxbourne Ct Marietta, GA 30067 $265,000 2,134 sq. ft. 6,186 sq. ft. $124
2017-05-17 Single Family Traditional 1315 Red Hill Rd Marietta, GA 30008 $203,000
2017-05-17 Single Family Traditional 1200 Maywood Ct Marietta, GA 30062 $485,000 3,158 sq. ft. 16,466 sq. ft. $154
2017-05-17 Single Family Traditional 1511 Kingfisher Dr Marietta, GA 30062 $433,000 2,807 sq. ft. 14,810 sq. ft. $154
2017-05-17 Single Family Traditional 1935 Briar Pond Way Marietta, GA 30066 $230,000 3,485 sq. ft.
2017-05-17 Single Family Contemporary 1756 Jody Dr Marietta, GA 30066 $235,000 2,552 sq. ft. 8,538 sq. ft. $92
2017-05-17 Single Family 2259 Ravenwood Trl Marietta, GA 30066 $200,000 3,036 sq. ft. 17,424 sq. ft. $66
2017-05-17 Single Family Traditional 1597 Tappahannock Trl Marietta, GA 30062 $339,000 3,129 sq. ft. 7,405 sq. ft. $108
2017-05-17 Single Family Traditional 2517 Lorne Ct Marietta, GA 30064 $239,900 18,165 sq. ft.
2017-05-17 Single Family Ranch; Traditional 2827 Colleton Dr Marietta, GA 30066 $215,000 1,750 sq. ft. 8,320 sq. ft. $123
2017-05-17 Single Family Traditional 1989 Summer Gate Ct Marietta, GA 30060 $149,900 1,716 sq. ft. $87
2017-05-17 Single Family Traditional 3117 Soldier Trl Marietta, GA 30068 $489,900 4,574 sq. ft. 14,810 sq. ft. $107
2017-05-16 Single Family Traditional 3903 Swallow Woods Pt Marietta, GA 30066 $519,000
2017-05-16 Single Family Ranch; Traditional 1185 Lincoln Dr Marietta, GA 30066 $450,000
2017-05-16 Single Family Traditional 1209 Lincoln Dr Marietta, GA 30066 $470,000
2017-05-16 Single Family Traditional 2282 Caraway Ct Marietta, GA 30066 $599,900 3,936 sq. ft. 14,375 sq. ft. $152
2017-05-16 Single Family Traditional 1195 Lincoln Dr Marietta, GA 30066 $490,000 3,000 sq. ft. 22,216 sq. ft. $163
2017-05-16 Single Family Traditional 1628 Pinebreeze Dr Marietta, GA 30062 $259,000 8,407 sq. ft.
2017-05-16 Single Family Traditional 1721 Bonnabel Trce Marietta, GA 30066 $322,000
2017-05-16 Single Family Traditional 4543 Ashmore Cir Marietta, GA 30066 $349,900 4,367 sq. ft. 23,958 sq. ft. $80
2017-05-16 Single Family Traditional 1354 Gray Rock Dr Marietta, GA 30066 $249,900 30,623 sq. ft.
2017-05-16 Single Family Ranch; Traditional 3739 Kensington Marietta, GA 30066 $218,900 1,469 sq. ft. 21,780 sq. ft. $149
2017-05-16 Single Family Traditional 3083 Gant Quarters Cir Marietta, GA 30068 $379,900 2,475 sq. ft. 22,216 sq. ft. $153
2017-05-16 Single Family Traditional 3605 Stone Dr Marietta, GA 30062 $899,000 21,780 sq. ft.
2017-05-16 Single Family Cape Cod 614 Silverwood Ct Marietta, GA 30066 $235,000 1,869 sq. ft. 7,623 sq. ft. $126
2017-05-16 Single Family Ranch 3787 Westchase Dr Marietta, GA 30066 $210,000 2,267 sq. ft. 7,362 sq. ft. $93
2017-05-16 Single Family Traditional 1709 Caswell Pkwy Marietta, GA 30060 $249,000 1,742 sq. ft.
2017-05-16 Single Family Traditional 3058 Fleet St Marietta, GA 30064 $400,000 3,785 sq. ft. 14,810 sq. ft. $106
2017-05-16 Single Family Traditional 2167 Sugar Creek Dr Marietta, GA 30064 $260,000 1,515 sq. ft. 171,626 sq. ft. $172
2017-05-16 Single Family Traditional 1227 Wynford Colony Marietta, GA 30064 $245,000 15,290 sq. ft.
2017-05-16 Single Family Contemporary; Traditional 1982 Ridgestone Run Marietta, GA 30008 $195,000 8,276 sq. ft.
2017-05-15 Single Family Contemporary 4274 Vienna Way Marietta, GA 30062 $399,000
2017-05-15 Single Family Traditional 399 Cascade Dr Marietta, GA 30064 $249,900
2017-05-15 Single Family Traditional 166 Kenley Ct Marietta, GA 30068 $345,000 3,105 sq. ft. 15,594 sq. ft. $111
2017-05-15 Single Family Traditional 2956 Haverford Ln Marietta, GA 30067 $350,000 2,338 sq. ft. 10,411 sq. ft. $150
2017-05-15 Single Family Traditional; Victorian 343 Church St Marietta, GA 30060 $995,000 33,759 sq. ft.
2017-05-15 Single Family Traditional 2816 Penncross Marietta, GA 30064 $340,000 14,810 sq. ft.
2017-05-15 Single Family Contemporary 5062 Ravenwood Marietta, GA 30066 $249,500 1,572 sq. ft. 16,117 sq. ft. $159
2017-05-15 Single Family Traditional 2772 Hawk Trace Ct Marietta, GA 30066 $220,000 1,940 sq. ft. 15,682 sq. ft. $113
2017-05-15 Single Family Traditional 1047 Grantham Way Marietta, GA 30064 $384,900 4,194 sq. ft. 23,653 sq. ft. $92
2017-05-15 Single Family Traditional 164 Helmswood Cir Marietta, GA 30064 $369,900 23,087 sq. ft.
2017-05-15 Single Family Traditional 3299 Allegheny Dr Marietta, GA 30066 $325,000 2,600 sq. ft. 17,206 sq. ft. $125
2017-05-15 Single Family Mediterranean 4112 Shoshone Valley Rd Marietta, GA 30068 $335,000
2017-05-15 Single Family Contemporary 2873 Water Wheel Ct Marietta, GA 30062 $289,900 15,028 sq. ft.
2017-05-15 Single Family Traditional 3738 Fir Ct Marietta, GA 30066 $264,900 2,064 sq. ft. 17,729 sq. ft. $128
2017-05-15 Single Family Contemporary 1761 Aleta Dr Marietta, GA 30066 $224,900 1,558 sq. ft. 9,017 sq. ft. $144
2017-05-15 Single Family Traditional 3585 Dyer Parke Ln Marietta, GA 30060 $189,000 2,195 sq. ft. 10,367 sq. ft. $86
2017-05-15 Single Family Ranch; Traditional 2565 Olive Springs Rd Marietta, GA 30060 $79,900 9,453 sq. ft.
2017-05-14 Single Family Traditional 4669 Cherry Way Marietta, GA 30067 $650,000 4,271 sq. ft. 21,344 sq. ft. $152
2017-05-12 Single Family Traditional 1226 Tigerwood Bend Marietta, GA 30067 $411,605 2,518 sq. ft. $163
2017-05-12 Single Family Traditional 1409 Castlebrooke Marietta, GA 30066 $495,000 3,998 sq. ft. 12,197 sq. ft. $124
2017-05-12 Single Family Traditional 47 Lindley Ave Marietta, GA 30064 $419,000 2,665 sq. ft. $157
2017-05-12 Single Family Traditional 2130 River Walk Marietta, GA 30067 $115,000
2017-05-12 Single Family Traditional 3882 Streamside Dr Marietta, GA 30067 $750,000 32,017 sq. ft.
2017-05-12 Single Family European; Traditional 2801 Long Grove Ct Marietta, GA 30062 $775,000 20,473 sq. ft.
2017-05-12 Single Family European; Traditional 2398 Monte Villa Courts Marietta, GA 30062 $824,900 16,988 sq. ft.
2017-05-12 Single Family Traditional 4055 River Ridge Chase Marietta, GA 30067 $599,000 3,889 sq. ft. 43,560 sq. ft. $154
2017-05-12 Single Family Traditional 853 Lookingglass Ln Marietta, GA 30064 $649,900 3,580 sq. ft. 10,454 sq. ft. $182
2017-05-12 Single Family Traditional 4710 Roswell Rd Marietta, GA 30062 $669,900 4,824 sq. ft. 43,996 sq. ft. $139
2017-05-12 Single Family Traditional 949 New Bedford Dr Marietta, GA 30068 $494,900 4,034 sq. ft. 19,558 sq. ft. $123
2017-05-12 Single Family Traditional 2641 Briarcrest Ct Marietta, GA 30062 $519,900 15,377 sq. ft.
2017-05-12 Single Family Cape Cod 249 Freyer Dr Marietta, GA 30060 $525,000 2,346 sq. ft. 6,708 sq. ft. $224
2017-05-12 Single Family Traditional 1141 Princeton Walk Marietta, GA 30067 $530,000
2017-05-12 Single Family Traditional 53 Peppertree Ct Marietta, GA 30068 $549,900 4,987 sq. ft. 16,074 sq. ft. $110
2017-05-12 Single Family Traditional 1450 Cameron Glen Dr Marietta, GA 30062 $435,000 4,297 sq. ft. 27,443 sq. ft. $101
2017-05-12 Single Family Colonial 341 Old Orchard Ct Marietta, GA 30068 $435,000 3,174 sq. ft. 10,934 sq. ft. $137
2017-05-12 Single Family Traditional 101 Fox Hills Cir Marietta, GA 30067 $439,000 3,661 sq. ft. 11,238 sq. ft. $120
2017-05-12 Single Family Traditional 241 Meadow Path Dr Marietta, GA 30064 $459,900 3,994 sq. ft. 20,473 sq. ft. $115
2017-05-12 Single Family Traditional 1611 Emerald Ridge Marietta, GA 30062 $375,000 3,826 sq. ft. 15,246 sq. ft. $98
2017-05-12 Single Family Traditional 3208 Saddleback Mountain Marietta, GA 30062 $375,000 15,246 sq. ft.
2017-05-12 Single Family Craftsman 518 Whitlock Ave Marietta, GA 30064 $399,500 2,374 sq. ft. 65,340 sq. ft. $168
2017-05-12 Single Family Traditional 3621 Packhorse Run Marietta, GA 30066 $350,000 2,911 sq. ft. 11,848 sq. ft. $120
2017-05-12 Single Family Traditional 3136 Twin Lakes Dr Marietta, GA 30062 $350,000 2,841 sq. ft. $123
2017-05-12 Single Family Traditional 2275 Chimney Swift Cir Marietta, GA 30062 $299,900 2,268 sq. ft. 18,861 sq. ft. $132
2017-05-12 Single Family Ranch 671 Soaring Dr Marietta, GA 30062 $299,999 3,051 sq. ft. 10,019 sq. ft. $98
2017-05-12 Single Family Contemporary 2531 Cedar Fork Trl Marietta, GA 30062 $304,900 2,813 sq. ft. 15,856 sq. ft. $108
2017-05-12 Single Family Other (See Remarks); Traditional 3119 Garden Lane Dr Marietta, GA 30062 $310,000 2,715 sq. ft. 28,140 sq. ft. $114
2017-05-12 Single Family Traditional 564 Basil Ct Marietta, GA 30064 $315,000 2,388 sq. ft. 20,517 sq. ft. $132
2017-05-12 Single Family Craftsman; Traditional 770 Gardenside Marietta, GA 30067 $269,900 3,920 sq. ft.
2017-05-12 Single Family Traditional 1419 Forest Ln Marietta, GA 30067 $275,000 25,962 sq. ft.
2017-05-12 Single Family Ranch 2671 Stoney Brook Ln Marietta, GA 30062 $250,000 13,068 sq. ft.
2017-05-12 Single Family Contemporary 3601 Westpoint Ct Marietta, GA 30062 $259,500 9,583 sq. ft.
2017-05-12 Single Family Traditional 3078 Crest Ridge Cir Marietta, GA 30060 $220,000
2017-05-12 Single Family Ranch 78 Christine Dr Marietta, GA 30066 $220,000 9,670 sq. ft.
2017-05-12 Single Family Traditional 1580 Oak Creek Dr Marietta, GA 30066 $229,900 11,238 sq. ft.
2017-05-12 Single Family Traditional 505 Barnesdale Dr Marietta, GA 30068 $239,900 11,021 sq. ft.
2017-05-12 Single Family Traditional 161 Dunleith Pkwy Marietta, GA 30008 $189,900 1,920 sq. ft. 4,792 sq. ft. $99
2017-05-12 Single Family Traditional 556 Mayjo Ct Marietta, GA 30067 $190,000 1,508 sq. ft. 8,451 sq. ft. $126
2017-05-12 Single Family Ranch; Traditional 3504 Clare Cottage Ter Marietta, GA 30008 $122,000
2017-05-12 Single Family Traditional 239 Rockin Hill Dr Marietta, GA 30060 $130,000 1,045 sq. ft. 7,623 sq. ft. $124
2017-05-11 Single Family Craftsman; Traditional 1183 Robert Ln Marietta, GA 30062 $939,000 4,141 sq. ft. 30,928 sq. ft. $227
2017-05-11 Single Family Traditional 2221 Heritage Trace Dr Marietta, GA 30062 $304,900 1,747 sq. ft. 19,950 sq. ft. $175
2017-05-11 Single Family Traditional 1488 Fenwick Dr Marietta, GA 30064 $275,000 15,072 sq. ft.
2017-05-11 Single Family Craftsman; Traditional 2814 Benson Dr Marietta, GA 30062 $949,000 4,577 sq. ft. 20,038 sq. ft. $207
2017-05-11 Single Family Traditional 5180 Willow Point Pkwy Marietta, GA 30068 $499,900 3,101 sq. ft. 11,413 sq. ft. $161
2017-05-11 Single Family Ranch 217 Conrad Ct Marietta, GA 30064 $309,900 21,954 sq. ft.
2017-05-11 Single Family Traditional 1841 Baldwin Way Marietta, GA 30068 $800,000 5,429 sq. ft. 26,180 sq. ft. $147
2017-05-11 Single Family Traditional 4504 Reva Way Marietta, GA 30066 $324,840 2,459 sq. ft. 17,163 sq. ft. $132
2017-05-11 Single Family Traditional 587 Crosswinds Cir Marietta, GA 30008 $285,000 3,451 sq. ft. 8,276 sq. ft. $83
2017-05-11 Single Family Contemporary; Country/Rustic; Other (See Remarks) 4757 Forest Valley Pl Marietta, GA 30066 $258,500 16,117 sq. ft.
2017-05-11 Single Family Traditional 417 Prosper Cir Marietta, GA 30060 $375,000 2,058 sq. ft. $182
2017-05-11 Single Family Traditional 954 Spring View Ct Marietta, GA 30068 $609,900 3,838 sq. ft. 12,937 sq. ft. $159
2017-05-11 Single Family Traditional 2945 Fredrick Dr Marietta, GA 30062 $620,000 20,038 sq. ft.
2017-05-11 Single Family Country/Rustic 2802 Brisbane Ct Marietta, GA 30062 $500,000 3,495 sq. ft. 26,615 sq. ft. $143
2017-05-11 Single Family Traditional 232 Unity Dr Marietta, GA 30064 $510,000 4,879 sq. ft. 37,636 sq. ft. $105
2017-05-11 Single Family Traditional 1829 Jacksons Creek Dr Marietta, GA 30068 $534,900 20,691 sq. ft.
2017-05-11 Single Family Ranch 2951 Goldfinch Cir Marietta, GA 30066 $380,000 2,372 sq. ft. 10,019 sq. ft. $160
2017-05-11 Single Family Traditional 365 Redwood Dr Marietta, GA 30064 $295,000 31,973 sq. ft.
2017-05-11 Single Family Traditional 1250 Rosette Way Marietta, GA 30062 $669,900 3,308 sq. ft. 14,375 sq. ft. $203
2017-05-11 Single Family Traditional 2829 Landing Marietta, GA 30066 $464,900 17,860 sq. ft.
2017-05-11 Single Family Ranch; Traditional 837 Thackston Dr Marietta, GA 30068 $469,900 10,411 sq. ft.
2017-05-11 Single Family Ranch; Traditional 3123 Willow Grove Cir Marietta, GA 30067 $330,000
2017-05-11 Single Family Traditional 950 Cornwall Ct Marietta, GA 30064 $350,000 3,846 sq. ft. 21,649 sq. ft. $91
2017-05-11 Single Family Traditional 3167 Oak Crest Trl Marietta, GA 30066 $279,900 2,268 sq. ft. 22,346 sq. ft. $123
2017-05-11 Single Family Ranch; Traditional 1818 Starlight Dr Marietta, GA 30062 $289,900 74,052 sq. ft.
2017-05-11 Single Family Traditional 2664 Windage Marietta, GA 30008 $174,500 1,506 sq. ft. $116
2017-05-10 Single Family Traditional 4750 Taylors Ct Marietta, GA 30068 $550,000 2,971 sq. ft. 11,326 sq. ft. $185
2017-05-10 Single Family Garden/Patio Home; Traditional 378 Summerhour St Marietta, GA 30060 $393,105 2,050 sq. ft. $192
2017-05-10 Single Family Garden/Patio Home; Traditional 368 Summerhour St Marietta, GA 30060 $395,015 2,050 sq. ft. $193
2017-05-10 Single Family Contemporary 820 Muirfield Trce Marietta, GA 30068 $469,000 2,663 sq. ft. 7,623 sq. ft. $176
2017-05-10 Single Family Traditional 107 Gateside Courts Marietta, GA 30067 $1,150,000 8,775 sq. ft. 14,375 sq. ft. $131
2017-05-10 Single Family Traditional 2190 Shallowford Rd Marietta, GA 30066 $950,000 6,924 sq. ft. 26,136 sq. ft. $137
2017-05-10 Single Family Traditional 2458 Hampton Park Way Marietta, GA 30062 $405,000 3,485 sq. ft. 9,148 sq. ft. $116
2017-05-10 Single Family Traditional 1676 Rifle Way Marietta, GA 30064 $319,900
2017-05-10 Single Family Traditional 2525 Kolb Manor Marietta, GA 30008 $225,000 2,554 sq. ft. 6,098 sq. ft. $88
2017-05-10 Single Family Ranch; Traditional 4405 Paper Mill Rd Marietta, GA 30067 $1,399,000 5,107 sq. ft. 87,120 sq. ft. $274
2017-05-10 Single Family Traditional 3967 Chapel Grove Dr Marietta, GA 30062 $750,000 16,117 sq. ft.
2017-05-10 Single Family Traditional 827 Mockingbird Ln Marietta, GA 30068 $967,000 4,878 sq. ft. 23,087 sq. ft. $198
2017-05-10 Single Family Country/Rustic; Ranch 5002 Timber Ridge Rd Marietta, GA 30068 $499,900 2,289 sq. ft. 56,628 sq. ft. $218
2017-05-10 Single Family Traditional 3371 Valley View Dr Marietta, GA 30068 $420,000 2,482 sq. ft. 11,326 sq. ft. $169
2017-05-10 Single Family Traditional 2702 Winsley Dr Marietta, GA 30064 $297,900 3,107 sq. ft. 19,079 sq. ft. $96
2017-05-10 Single Family Ranch 671 Smithstone Rd Marietta, GA 30067 $279,000
2017-05-10 Single Family Traditional 317 England Pl Marietta, GA 30066 $250,000 2,250 sq. ft. 26,136 sq. ft. $111
2017-05-10 Single Family Ranch 1116 Pair Rd Marietta, GA 30060 $144,900 2,365 sq. ft. 11,543 sq. ft. $61
2017-05-09 Single Family Ranch 1579 Bellchase Dr Marietta, GA 30064 $169,900 1,800 sq. ft. $94
2017-05-09 Single Family Craftsman 1680 Cumberland Club Rd Marietta, GA 30008 $304,900 2,556 sq. ft. 11,761 sq. ft. $119
2017-05-09 Single Family European; Traditional 874 Hyde Rd Marietta, GA 30068 $679,000 4,452 sq. ft. 34,848 sq. ft. $153
2017-05-09 Single Family Traditional 1876 Wilkenson Xing Marietta, GA 30066 $365,000 3,954 sq. ft. 7,405 sq. ft. $92
2017-05-09 Single Family Traditional 1834 Waldrep Cir Marietta, GA 30060 $79,900 8,364 sq. ft.
2017-05-09 Single Family Traditional 2350 Timberbrook Trce Marietta, GA 30066 $415,000 3,424 sq. ft. 29,751 sq. ft. $121
2017-05-09 Single Family Traditional 3307 Woolbridge Ct Marietta, GA 30062 $400,000 2,831 sq. ft. 16,640 sq. ft. $141
2017-05-09 Single Family French Provincial 3120 Parisian Dr Marietta, GA 30067 $650,000 4,811 sq. ft. 20,038 sq. ft. $135
2017-05-09 Single Family Traditional 4789 Wheaton Marietta, GA 30068 $515,000 25,265 sq. ft.
2017-05-09 Single Family Traditional 2719 Stillwater Lake Ln Marietta, GA 30066 $337,900 2,656 sq. ft. 7,841 sq. ft. $127
2017-05-09 Single Family Traditional 2439 Jewell Dr Marietta, GA 30066 $300,000 2,925 sq. ft. 20,038 sq. ft. $103
2017-05-09 Single Family Contemporary 2865 Creek Park Dr Marietta, GA 30062 $289,900 2,334 sq. ft. 12,415 sq. ft. $124
2017-05-09 Single Family Craftsman; Traditional 571 Glen Eagles Cir Marietta, GA 30067 $1,900,000 8,806 sq. ft. 27,443 sq. ft. $216
2017-05-09 Single Family Traditional 1501 Gateview Way Marietta, GA 30062 $259,900 53,143 sq. ft.
2017-05-09 Single Family European 360 Shadowlawn Rd Marietta, GA 30067 $899,000 43,560 sq. ft.
2017-05-09 Single Family Ranch 3710 Greenview Dr Marietta, GA 30068 $674,900 2,928 sq. ft. 9,583 sq. ft. $230
2017-05-09 Single Family European 4012 Almond Marietta, GA 30062 $535,000 14,810 sq. ft.
2017-05-09 Single Family Traditional 1758 San Andra Marietta, GA 30062 $239,900 1,832 sq. ft. 22,216 sq. ft. $131
2017-05-09 Single Family Traditional 2989 Sutton Gln Marietta, GA 30062 $335,000 16,945 sq. ft.
2017-05-09 Single Family Traditional 1382 Sheffield Pkwy Marietta, GA 30062 $350,000 3,226 sq. ft. 18,034 sq. ft. $108
2017-05-09 Single Family Ranch 1424 Cottage Way Marietta, GA 30066 $169,900 8,276 sq. ft.
2017-05-09 Single Family Traditional 2751 Long Grove Dr Marietta, GA 30062 $849,900 26,354 sq. ft.
2017-05-09 Single Family Ranch 534 Charing Cross Dr Marietta, GA 30066 $206,900 19,994 sq. ft.
2017-05-09 Single Family Traditional 4716 Green River Ct Marietta, GA 30068 $1,750,000 6,998 sq. ft. 103,934 sq. ft. $250
2017-05-09 Single Family Craftsman 2964 Octavia Cir Marietta, GA 30062 $750,000 2,854 sq. ft. 16,988 sq. ft. $263
2017-05-09 Single Family Contemporary; Traditional 5084 Willow Point Pkwy Marietta, GA 30068 $450,000 3,318 sq. ft. 11,195 sq. ft. $136
2017-05-09 Single Family Traditional 1298 Ashworth Ave Marietta, GA 30064 $292,900 2,680 sq. ft. 16,640 sq. ft. $109
2017-05-09 Single Family 2234 Addison Rd Marietta, GA 30066 $299,900 1,617 sq. ft. 148,104 sq. ft. $185
2017-05-09 Single Family Traditional 2975 Milford Trl Marietta, GA 30008 $225,000 2,288 sq. ft. 13,939 sq. ft. $98
2017-05-09 Single Family Ranch 709 Bounty Rd Marietta, GA 30066 $175,000 21,780 sq. ft.
2017-05-09 Single Family 1752 Silver Leaf Dr Marietta, GA 30008 $103,000 7,971 sq. ft.
2017-05-09 Single Family Traditional 2961 Bea Mar Dr Marietta, GA 30062 $425,000 3,157 sq. ft. 9,975 sq. ft. $135
2017-05-08 Single Family Contemporary 3921 Orange Wood Marietta, GA 30062 $369,000 3,182 sq. ft. 15,246 sq. ft. $116
2017-05-08 Single Family Traditional 4388 Dunmore Rd Marietta, GA 30068 $550,000 3,036 sq. ft. 16,117 sq. ft. $181
2017-05-08 Single Family Traditional 1494 Fenwick Marietta, GA 30064 $279,900 3,144 sq. ft. 18,295 sq. ft. $89
2017-05-08 Single Family Traditional 3247 Clearview Marietta, GA 30060 $199,000 17,424 sq. ft.
2017-05-08 Single Family Traditional 3729 Fox Hills Dr Marietta, GA 30067 $339,900 3,322 sq. ft. 21,780 sq. ft. $102
2017-05-08 Single Family Ranch 3421 Brookhill Cir Marietta, GA 30062 $185,000 3,204 sq. ft. 10,019 sq. ft. $58
2017-05-08 Single Family Contemporary; Traditional 3151 Resin St Marietta, GA 30066 $215,000 23,087 sq. ft.
2017-05-08 Single Family Other (See Remarks); Traditional 1179 Broward Dr Marietta, GA 30068 $175,000
2017-05-08 Single Family Ranch 3472 Whisperwood Ct Marietta, GA 30064 $200,000 1,510 sq. ft. 8,015 sq. ft. $132
2017-05-08 Single Family Other (See Remarks); Ranch 227 Rock Garden Ter Marietta, GA 30064 $164,900 18,600 sq. ft.
2017-05-08 Single Family Traditional 3376 Bridle Run Trl Marietta, GA 30064 $359,900 3,302 sq. ft. 21,780 sq. ft. $109
2017-05-08 Single Family A-Frame 2773 Stacy Ct Marietta, GA 30062 $264,264 2,400 sq. ft. 13,416 sq. ft. $110
2017-05-08 Single Family Contemporary 3035 Holly Mill Run Marietta, GA 30062 $259,900 2,026 sq. ft. 11,543 sq. ft. $128
2017-05-08 Single Family 750 Mcburnette Rd Marietta, GA 30068 $375,000 2,079 sq. ft. 47,916 sq. ft. $180
2017-05-08 Single Family Traditional 194 Kenley Ct Marietta, GA 30068 $330,000 2,487 sq. ft. 14,810 sq. ft. $133
2017-05-08 Single Family 740 Mcburnette Rd Marietta, GA 30068 $275,000 1,150 sq. ft. 26,136 sq. ft. $239
2017-05-08 Single Family Traditional 3783 Courson St Marietta, GA 30066 $469,900 4,025 sq. ft. 15,682 sq. ft. $117
2017-05-08 Single Family Craftsman 2876 Laureate Ct Marietta, GA 30062 $329,000 2,424 sq. ft. 4,356 sq. ft. $136
2017-05-08 Single Family Traditional 655 Gunby Rd Marietta, GA 30067 $545,000 3,716 sq. ft. 20,038 sq. ft. $147
2017-05-08 Single Family Traditional 392 Cherry Tree Marietta, GA 30066 $276,500 5,663 sq. ft.
2017-05-08 Single Family Traditional 330 Bloombridge Way Marietta, GA 30066 $285,000 2,675 sq. ft. $107
2017-05-06 Single Family Traditional 1037 Grantham Way Marietta, GA 30064 $375,000 24,394 sq. ft.
2017-05-06 Single Family Ranch 4572 Jamerson Forest Parkway Marietta, GA 30066 $201,900
2017-05-06 Single Family Contemporary; Other (See Remarks) 1173 Wind Hill Ln Marietta, GA 30064 $229,000 2,309 sq. ft. 26,877 sq. ft. $99
2017-05-06 Single Family Ranch 3064 Hicks Rd Marietta, GA 30060 $395,000
2017-05-05 Single Family Traditional 3513 Baroney Ln Marietta, GA 30008 $164,500 1,984 sq. ft. 20,168 sq. ft. $83
2017-05-05 Single Family Ranch 123 Willow Glenn Dr Marietta, GA 30068 $360,000 2,364 sq. ft. 20,473 sq. ft. $152
2017-05-05 Single Family Bungalow/Cottage; Garden/Patio Home; Traditional 103 Kendrick Farm Ln Marietta, GA 30066 $269,000 1,758 sq. ft. 2,178 sq. ft. $153
2017-05-05 Single Family Traditional 916 St Lyonn Cts Marietta, GA 30068 $1,240,000 22,390 sq. ft.
2017-05-05 Single Family Traditional 2974 Windstone Cir Marietta, GA 30062 $1,250,000 7,225 sq. ft. 20,038 sq. ft. $173
2017-05-05 Single Family Traditional 5313 Baldwin Ridge Trl Marietta, GA 30068 $739,000 4,022 sq. ft. 25,700 sq. ft. $184
2017-05-05 Single Family Traditional 4930 Gaskin Walk Marietta, GA 30068 $749,000 16,771 sq. ft.
2017-05-05 Single Family A-Frame; Traditional 4796 Broxbourne Dr Marietta, GA 30068 $796,000 5,732 sq. ft. 15,159 sq. ft. $139
2017-05-05 Single Family Traditional 2375 Chelsea Landing Way Marietta, GA 30062 $835,000 5,143 sq. ft. 14,810 sq. ft. $162
2017-05-05 Single Family Craftsman 4130 Clubland Dr Marietta, GA 30068 $849,500 12,502 sq. ft.
2017-05-05 Single Family European 3785 Sewell Mill Rd Marietta, GA 30062 $889,900 4,900 sq. ft. $182
2017-05-05 Single Family Traditional 3342 Acorn Falls Dr Marietta, GA 30062 $989,750 6,283 sq. ft. 23,522 sq. ft. $158
2017-05-05 Single Family Traditional 3438 Woodshire Xing Marietta, GA 30066 $619,000 4,280 sq. ft. 22,651 sq. ft. $145
2017-05-05 Single Family Traditional 873 Laurel Crest Ct Marietta, GA 30064 $625,000 125,496 sq. ft.
2017-05-05 Single Family Traditional 1015 Wynmont Dr Marietta, GA 30062 $684,900 10,454 sq. ft.
2017-05-05 Single Family Traditional 423 Cove Dr Marietta, GA 30067 $475,000 3,106 sq. ft. 22,216 sq. ft. $153
2017-05-05 Single Family Traditional 4149 Lakeshore Marietta, GA 30067 $479,000 20,909 sq. ft.
2017-05-05 Single Family Cape Cod 2739 Old Mill Trl Marietta, GA 30062 $489,900 3,721 sq. ft. 12,415 sq. ft. $132
2017-05-05 Single Family Traditional 5168 Willow Point Pkwy Marietta, GA 30068 $539,500 3,672 sq. ft. 14,070 sq. ft. $147
2017-05-05 Single Family A-Frame; Traditional 3627 Oxford Trce Marietta, GA 30062 $484,900 2,885 sq. ft. 28,140 sq. ft. $168
2017-05-05 Single Family Traditional 3347 Somerset Ct Marietta, GA 30067 $399,900 2,555 sq. ft. 25,265 sq. ft. $157
2017-05-05 Single Family Ranch 3752 Alden Ct Marietta, GA 30066 $425,000 3,322 sq. ft. 20,604 sq. ft. $128
2017-05-05 Single Family Traditional 3999 Brintons Ml Marietta, GA 30062 $445,000 2,843 sq. ft. 10,629 sq. ft. $157
2017-05-05 Single Family Colonial 411 Woodston West Dr Marietta, GA 30068 $450,000 3,336 sq. ft. 20,038 sq. ft. $135
2017-05-05 Single Family Country/Rustic; Traditional 2537 Chimney Springs Dr Marietta, GA 30062 $469,900 3,120 sq. ft. 10,411 sq. ft. $151
2017-05-05 Single Family Traditional 4048 Coyte Dr Marietta, GA 30062 $359,000 1,740 sq. ft. 20,038 sq. ft. $206
2017-05-05 Single Family Traditional 2895 Pine Grove Ct Marietta, GA 30067 $379,900 15,682 sq. ft.
2017-05-05 Single Family Traditional 1748 Glen Echo Way Marietta, GA 30062 $398,500 3,356 sq. ft. 10,019 sq. ft. $119
2017-05-05 Single Family Ranch 4161 Lakeshore Way Marietta, GA 30067 $400,000 2,170 sq. ft. 20,909 sq. ft. $184
2017-05-05 Single Family Ranch; Traditional 384 Stewart Ave Marietta, GA 30064 $335,000 1,742 sq. ft. 23,958 sq. ft. $192
2017-05-05 Single Family Traditional 1506 Sage Ridge Dr Marietta, GA 30064 $356,000 3,032 sq. ft. 20,038 sq. ft. $117
2017-05-05 Single Family Traditional 613 Maple Grove Way Marietta, GA 30066 $324,500 2,934 sq. ft. 6,098 sq. ft. $111
2017-05-05 Single Family Traditional 3441 Valley View Dr Marietta, GA 30068 $325,000 2,568 sq. ft. 23,958 sq. ft. $127
2017-05-05 Single Family Traditional 4159 Brasher Dr Marietta, GA 30066 $331,500 4,246 sq. ft. 18,339 sq. ft. $78
2017-05-05 Single Family Traditional 1651 Oakford Ct Marietta, GA 30064 $295,000 3,408 sq. ft. 17,163 sq. ft. $87
2017-05-05 Single Family Traditional 2309 Milstead Cir Marietta, GA 30066 $305,000 2,918 sq. ft. 15,377 sq. ft. $105
2017-05-05 Single Family Traditional 1317 Idlewyld Dr Marietta, GA 30064 $310,000 19,254 sq. ft.
2017-05-05 Single Family Contemporary 3134 Shadowood Ln Marietta, GA 30066 $274,900 2,418 sq. ft. 21,344 sq. ft. $114
2017-05-05 Single Family Traditional 2352 Fenwick Ct Marietta, GA 30064 $275,000 2,621 sq. ft. 18,513 sq. ft. $105
2017-05-05 Single Family Traditional 2118 Breconridge Dr Marietta, GA 30064 $275,000 2,348 sq. ft. 20,212 sq. ft. $117
2017-05-05 Single Family Traditional 1206 Wilkes Way Marietta, GA 30064 $285,000 15,115 sq. ft.
2017-05-05 Single Family Contemporary 2550 Rocky Springs Dr Marietta, GA 30062 $285,000 11,108 sq. ft.
2017-05-05 Single Family Traditional 4105 Christacy Way Marietta, GA 30066 $285,000 2,862 sq. ft. 6,665 sq. ft. $100
2017-05-05 Single Family Ranch 1613 Huntington Marietta, GA 30066 $259,000 2,043 sq. ft. 12,240 sq. ft. $127
2017-05-05 Single Family Contemporary 650 Bellemeade Dr Marietta, GA 30008 $265,000 2,668 sq. ft. 117,612 sq. ft. $99
2017-05-05 Single Family Traditional 21 Steve Ct Marietta, GA 30064 $219,900 1,736 sq. ft. 17,250 sq. ft. $127
2017-05-05 Single Family Ranch 4024 Sussex Pl Marietta, GA 30066 $222,500 2,042 sq. ft. 22,216 sq. ft. $109
2017-05-05 Single Family Craftsman; Traditional 1488 Mcadoo Dr Marietta, GA 30064 $224,900 2,129 sq. ft. 14,593 sq. ft. $106
2017-05-05 Single Family Ranch; Traditional 4771 Lee Waters Marietta, GA 30066 $225,000 1,802 sq. ft. 30,274 sq. ft. $125
2017-05-05 Single Family Craftsman; Traditional 1346 Sandtown Grn Marietta, GA 30008 $196,900 3,920 sq. ft.
2017-05-05 Single Family Contemporary 2643 Morgan Lake Dr Marietta, GA 30066 $198,000 1,984 sq. ft. 14,985 sq. ft. $100
2017-05-05 Single Family Ranch; Traditional 2900 White Oak Ter Marietta, GA 30060 $199,900 2,200 sq. ft. 10,149 sq. ft. $91
2017-05-05 Single Family Ranch; Traditional 2307 Fraser Rd Marietta, GA 30066 $200,000 1,885 sq. ft. 43,560 sq. ft. $106
2017-05-05 Single Family Traditional 1672 Scufflegrit Rd Marietta, GA 30062 $209,900 2,516 sq. ft. 10,019 sq. ft. $83
2017-05-05 Single Family Traditional 3138 Milford Chase Marietta, GA 30008 $159,900 21,780 sq. ft.
2017-05-05 Single Family Traditional 1740 Branch View Dr Marietta, GA 30062 $165,000 1,508 sq. ft. 11,718 sq. ft. $109
2017-05-05 Single Family Traditional 3376 Raes Creel Rd Marietta, GA 30008 $169,900 2,054 sq. ft. 1,307 sq. ft. $83
2017-05-05 Single Family Colonial; Traditional 250 Robbie Ln Marietta, GA 30060 $132,500 1,288 sq. ft. 12,284 sq. ft. $103
2017-05-05 Single Family Traditional 3482 Autumn Ridge Pkwy Marietta, GA 30066 $134,900 14,113 sq. ft.
2017-05-05 Single Family Ranch 1020 Piedmont Rd Marietta, GA 30066 $140,000 69,696 sq. ft. 165,528 sq. ft. $2
2017-05-04 Single Family Traditional 4774 Outlook Way Marietta, GA 30066 $610,000 6,076 sq. ft. 26,136 sq. ft. $100
2017-05-04 Single Family Traditional 475 Whitlock Ave Marietta, GA 30064 $650,000 44,867 sq. ft.
2017-05-04 Single Family Traditional 1088 Polo Club Marietta, GA 30064 $350,000 3,863 sq. ft. $91
2017-05-04 Single Family Traditional 3914 Hadley Farm Dr Marietta, GA 30066 $200,000 1,872 sq. ft. 20,909 sq. ft. $107
2017-05-04 Single Family Traditional 5029 Rodrick Trce Marietta, GA 30066 $200,000 1,895 sq. ft. 16,553 sq. ft. $106
2017-05-04 Single Family Traditional 1830 Leighton Ln Marietta, GA 30062 $849,900 4,512 sq. ft. $188
2017-05-03 Single Family Traditional 1207 Wilkes Way Marietta, GA 30064 $290,000 2,975 sq. ft. 14,810 sq. ft. $97
2017-05-03 Single Family Traditional 582 Lullingstone Dr Marietta, GA 30067 $265,000 2,183 sq. ft. 4,792 sq. ft. $121
2017-05-03 Single Family Traditional 253 Dunstans Pass Marietta, GA 30066 $514,900 5,174 sq. ft. 14,810 sq. ft. $100
2017-05-03 Single Family Traditional 1257 Cumberland Creek Pl Marietta, GA 30008 $195,900 2,300 sq. ft. $85
2017-05-03 Single Family Traditional 3175 Mary Dr Marietta, GA 30066 $354,900 2,360 sq. ft. 25,265 sq. ft. $150
2017-05-03 Single Family European 1389 Waterford Green Marietta, GA 30068 $699,900 20,168 sq. ft.
2017-05-03 Single Family Traditional 3355 Hunterdon Way Marietta, GA 30067 $440,000 22,216 sq. ft.
2017-05-03 Single Family Traditional 1102 1102 Sadlers Close Marietta, GA 30068 $420,000 7,144 sq. ft.
2017-05-03 Single Family Other (See Remarks); Traditional 310 Flatstone Way Marietta, GA 30064 $640,000 5,922 sq. ft. $108
2017-05-03 Single Family Traditional 1531 Fallen Leaf Dr Marietta, GA 30064 $298,000 2,958 sq. ft. 16,117 sq. ft. $101
2017-05-03 Single Family Traditional 3896 Beacon St Marietta, GA 30062 $422,000 18,252 sq. ft.
2017-05-03 Single Family Craftsman; Traditional 1495 Kolb Ln Marietta, GA 30064 $512,000 4,079 sq. ft. 40,511 sq. ft. $126
2017-05-03 Single Family Traditional 1975 River Forest Marietta, GA 30068 $649,000 4,933 sq. ft. 26,136 sq. ft. $132
2017-05-03 Single Family Traditional 2145 Kensington Ct Marietta, GA 30064 $274,900 2,754 sq. ft. 17,860 sq. ft. $100
2017-05-03 Single Family Traditional 2141 Clementine Dr Marietta, GA 30066 $260,000 15,551 sq. ft.
2017-05-03 Single Family Ranch 2433 Charles Rogers Marietta, GA 30060 $165,000 13,939 sq. ft.
2017-05-03 Single Family Traditional 1203 Promontory Path Marietta, GA 30062 $649,000 5,124 sq. ft. 10,890 sq. ft. $127
2017-05-03 Single Family Cape Cod; Colonial; Craftsman; Traditional 973 Otter Way Marietta, GA 30068 $449,900 2,933 sq. ft. 20,038 sq. ft. $153
2017-05-03 Single Family Traditional 2867 Wynford Dr Marietta, GA 30064 $276,000 2,404 sq. ft. 18,252 sq. ft. $115
2017-05-03 Single Family Traditional 2184 Whitehall Dr Marietta, GA 30066 $249,900 2,158 sq. ft. 9,148 sq. ft. $116
2017-05-03 Single Family Ranch 422 Buckingham Dr Marietta, GA 30066 $230,000 2,154 sq. ft. 11,326 sq. ft. $107
2017-05-02 Single Family Traditional 2980 Milford Trl Marietta, GA 30008 $259,900 15,028 sq. ft.
2017-05-02 Single Family Traditional 222 Kings Row Marietta, GA 30067 $500,000 3,928 sq. ft. 20,473 sq. ft. $127
2017-05-02 Single Family Ranch 4269 Keheley Rd Marietta, GA 30066 $220,000 17,163 sq. ft.
2017-05-02 Single Family Traditional 2623 Whitehurst Dr Marietta, GA 30062 $700,000 1,552 sq. ft. 46,609 sq. ft. $451
2017-05-02 Single Family Cape Cod; Traditional 1211 Pebble Creek Rd Marietta, GA 30067 $325,000 3,286 sq. ft. 63,598 sq. ft. $99
2017-05-02 Single Family Traditional 2368 Carrington Way Marietta, GA 30067 $275,000 2,160 sq. ft. 8,886 sq. ft. $127
2017-05-02 Single Family European; Traditional 921 Asheton Ct Marietta, GA 30068 $598,900 3,462 sq. ft. 15,464 sq. ft. $173
2017-05-02 Single Family Traditional 3801 Sweat Creek Run Marietta, GA 30062 $825,000 6,766 sq. ft. 15,246 sq. ft. $122
2017-05-02 Single Family Traditional 4943 Sydney Ln Marietta, GA 30066 $479,000 16,117 sq. ft.
2017-05-02 Single Family Traditional 2480 Anderson Estates Ct Marietta, GA 30064 $399,900 3,308 sq. ft. 22,216 sq. ft. $121
2017-05-02 Single Family Traditional 1370 Mitchell Falls Ct Marietta, GA 30066 $639,900 5,243 sq. ft. 8,712 sq. ft. $122
2017-05-02 Single Family Bungalow/Cottage; Craftsman 52 Lathhouse Ln Marietta, GA 30066 $349,900 2,078 sq. ft. 13,068 sq. ft. $168
2017-05-02 Single Family Ranch 2125 Mellor Ln Marietta, GA 30064 $845,000 2,635 sq. ft. 492,228 sq. ft. $321
2017-05-02 Single Family Traditional 3574 Tuckers Farm Marietta, GA 30067 $550,000 5,668 sq. ft. 22,216 sq. ft. $97
2017-05-02 Single Family Contemporary 2569 Lakefield Trl Marietta, GA 30064 $394,900 3,471 sq. ft. 9,583 sq. ft. $114
2017-05-02 Single Family Country/Rustic; Craftsman 1525 Briarfield Way Marietta, GA 30066 $259,000 2,559 sq. ft. 5,663 sq. ft. $101
2017-05-02 Single Family Traditional 4963 Olde Mill Dr Marietta, GA 30066 $232,500 14,985 sq. ft.
2017-05-02 Single Family Ranch 1821 Trophy Dr Marietta, GA 30062 $235,000 2,700 sq. ft. 10,498 sq. ft. $87
2017-05-02 Single Family Traditional 2566 Alpine Trl Marietta, GA 30062 $340,000 126,280,440 sq. ft.
2017-05-02 Single Family Traditional 3240 Waldwick Way Marietta, GA 30067 $625,000 4,577 sq. ft. 26,572 sq. ft. $137
2017-05-02 Single Family Traditional 4522 Outlook Dr Marietta, GA 30066 $525,000
2017-05-02 Single Family Traditional 3663 Outlook Ct Marietta, GA 30066 $535,000
2017-05-01 Single Family Traditional 700 Alexander Farms Ln Marietta, GA 30064 $325,000 3,125 sq. ft. 10,890 sq. ft. $104
2017-05-01 Single Family Ranch 4355 Reef Rd Marietta, GA 30066 $190,000 1,616 sq. ft. 10,019 sq. ft. $118